createdAt,value
2018-03-03T00:01:02.154Z,161.77
2018-03-03T00:03:29.730Z,133.77
2018-03-03T00:05:58.116Z,141.70
2018-03-03T00:08:26.476Z,151.10
2018-03-03T00:10:54.089Z,159.13
2018-03-03T00:13:21.704Z,135.40
2018-03-03T00:15:49.301Z,157.10
2018-03-03T00:18:16.911Z,147.07
2018-03-03T00:20:49.686Z,149.95
2018-03-03T00:23:17.305Z,160.20
2018-03-03T00:25:44.888Z,153.10
2018-03-03T00:28:12.489Z,151.32
2018-03-03T00:30:40.080Z,162.02
2018-03-03T00:33:08.625Z,166.75
2018-03-03T00:35:36.202Z,148.25
2018-03-03T00:38:04.560Z,157.00
2018-03-03T00:40:32.168Z,150.02
2018-03-03T00:42:59.771Z,151.43
2018-03-03T00:45:27.404Z,158.45
2018-03-03T00:47:54.996Z,140.20
2018-03-03T00:50:22.602Z,145.40
2018-03-03T00:52:50.196Z,154.38
2018-03-03T00:55:17.803Z,154.00
2018-03-03T00:57:46.159Z,151.85
2018-03-03T01:00:13.769Z,150.45
2018-03-03T01:02:41.345Z,138.00
2018-03-03T01:05:08.931Z,169.52
2018-03-03T01:07:37.533Z,157.32
2018-03-03T01:10:05.123Z,141.93
2018-03-03T01:12:32.730Z,145.18
2018-03-03T01:15:00.319Z,166.25
2018-03-03T01:17:27.908Z,140.98
2018-03-03T01:19:55.529Z,164.70
2018-03-03T01:22:23.110Z,146.48
2018-03-03T01:24:51.486Z,149.45
2018-03-03T01:27:19.847Z,148.75
2018-03-03T01:29:47.444Z,143.45
2018-03-03T01:32:15.803Z,143.90
2018-03-03T01:34:43.408Z,143.27
2018-03-03T01:37:10.994Z,155.90
2018-03-03T01:39:38.614Z,148.13
2018-03-03T01:42:06.216Z,152.07
2018-03-03T01:44:33.838Z,149.48
2018-03-03T01:47:09.092Z,158.32
2018-03-03T01:49:36.662Z,149.00
2018-03-03T01:52:04.253Z,154.95
2018-03-03T01:54:31.840Z,149.98
2018-03-03T01:56:59.446Z,148.90
2018-03-03T01:59:27.048Z,141.95
2018-03-03T02:01:54.650Z,153.52
2018-03-03T02:04:22.261Z,162.70
2018-03-03T02:06:49.843Z,161.73
2018-03-03T02:09:17.470Z,156.65
2018-03-03T02:11:45.065Z,161.10
2018-03-03T02:14:13.435Z,149.48
2018-03-03T02:16:41.773Z,150.23
2018-03-03T02:19:09.359Z,162.68
2018-03-03T02:21:37.953Z,168.55
2018-03-03T02:24:06.311Z,155.80
2018-03-03T02:26:33.924Z,146.25
2018-03-03T02:29:01.544Z,165.77
2018-03-03T02:31:29.135Z,149.15
2018-03-03T02:33:56.742Z,166.20
2018-03-03T02:36:24.379Z,155.50
2018-03-03T02:38:51.951Z,150.95
2018-03-03T02:41:19.541Z,144.93
2018-03-03T02:43:47.147Z,145.20
2018-03-03T02:46:14.762Z,154.55
2018-03-03T02:48:42.330Z,159.45
2018-03-03T02:51:09.913Z,143.40
2018-03-03T02:53:37.550Z,162.27
2018-03-03T02:56:05.904Z,140.57
2018-03-03T02:58:33.476Z,152.77
2018-03-03T03:01:01.117Z,139.15
2018-03-03T03:03:28.695Z,155.07
2018-03-03T03:05:56.268Z,153.50
2018-03-03T03:08:23.869Z,156.48
2018-03-03T03:10:51.453Z,137.40
2018-03-03T03:13:19.031Z,154.48
2018-03-03T03:15:46.673Z,145.12
2018-03-03T03:18:14.241Z,133.68
2018-03-03T03:20:41.819Z,150.43
2018-03-03T03:23:10.417Z,156.90
2018-03-03T03:25:37.991Z,153.60
2018-03-03T03:28:06.331Z,150.90
2018-03-03T03:30:33.994Z,153.57
2018-03-03T03:33:01.620Z,139.52
2018-03-03T03:35:29.219Z,131.18
2018-03-03T03:37:57.910Z,145.85
2018-03-03T03:40:25.487Z,141.07
2018-03-03T03:42:53.880Z,138.85
2018-03-03T03:45:22.222Z,140.25
2018-03-03T03:47:49.820Z,140.70
2018-03-03T03:50:18.215Z,135.10
2018-03-03T03:52:45.807Z,141.37
2018-03-03T03:55:13.387Z,150.68
2018-03-03T03:57:41.013Z,150.80
2018-03-03T04:00:08.599Z,151.30
2018-03-03T04:02:36.179Z,147.27
2018-03-03T04:05:03.802Z,146.05
2018-03-03T04:07:31.379Z,135.98
2018-03-03T04:09:58.953Z,166.37
2018-03-03T04:12:26.563Z,158.18
2018-03-03T04:14:54.142Z,156.25
2018-03-03T04:17:21.754Z,143.10
2018-03-03T04:19:50.108Z,151.25
2018-03-03T04:22:17.729Z,151.90
2018-03-03T04:24:45.315Z,154.45
2018-03-03T04:27:12.910Z,150.12
2018-03-03T04:29:41.297Z,148.62
2018-03-03T04:32:09.641Z,142.27
2018-03-03T04:34:37.270Z,148.30
2018-03-03T04:37:04.857Z,153.45
2018-03-03T04:39:32.497Z,139.93
2018-03-03T04:42:00.078Z,156.05
2018-03-03T04:44:27.646Z,136.95
2018-03-03T04:46:55.269Z,152.15
2018-03-03T04:49:22.847Z,141.60
2018-03-03T04:51:50.426Z,158.93
2018-03-03T04:54:18.039Z,150.02
2018-03-03T04:56:45.653Z,157.43
2018-03-03T04:59:19.670Z,154.85
2018-03-03T05:01:50.246Z,140.73
2018-03-03T05:07:27.226Z,146.68
2018-03-03T05:09:55.557Z,144.23
2018-03-03T05:12:28.707Z,149.75
2018-03-03T05:15:11.950Z,149.90
2018-03-03T05:21:00.692Z,160.45
2018-03-03T05:23:34.839Z,147.00
2018-03-03T05:29:13.940Z,138.30
2018-03-03T05:31:57.195Z,160.23
2018-03-03T05:34:32.333Z,160.88
2018-03-03T05:37:05.467Z,149.18
2018-03-03T05:39:37.910Z,157.18
2018-03-03T05:45:14.899Z,142.15
2018-03-03T05:47:48.888Z,133.27
2018-03-03T05:50:22.938Z,144.77
2018-03-03T05:56:06.977Z,180.68
2018-03-03T05:58:41.925Z,153.23
2018-03-03T06:01:13.001Z,144.85
2018-03-03T06:03:43.219Z,163.60
2018-03-03T06:06:16.421Z,175.27
2018-03-03T06:08:46.686Z,166.50
2018-03-03T06:11:15.051Z,168.62
2018-03-03T06:13:42.634Z,174.68
2018-03-03T06:16:10.960Z,169.80
2018-03-03T06:18:38.541Z,173.32
2018-03-03T06:21:06.148Z,168.73
2018-03-03T06:23:33.729Z,193.10
2018-03-03T06:26:01.294Z,182.75
2018-03-03T06:28:28.870Z,179.38
2018-03-03T06:30:56.444Z,175.45
2018-03-03T06:33:24.025Z,176.98
2018-03-03T06:35:52.368Z,157.98
2018-03-03T06:38:19.925Z,162.95
2018-03-03T06:40:48.281Z,167.68
2018-03-03T06:43:16.923Z,153.77
2018-03-03T06:45:44.546Z,159.35
2018-03-03T06:48:12.156Z,152.07
2018-03-03T06:50:41.503Z,172.50
2018-03-03T06:53:09.098Z,155.30
2018-03-03T06:55:37.471Z,173.20
2018-03-03T06:58:05.048Z,178.75
2018-03-03T07:00:33.406Z,169.27
2018-03-03T07:03:01.062Z,162.00
2018-03-03T07:05:29.513Z,165.68
2018-03-03T07:07:57.231Z,166.62
2018-03-03T07:10:24.885Z,167.05
2018-03-03T07:12:53.239Z,173.57
2018-03-03T07:15:22.783Z,170.65
2018-03-03T07:17:51.133Z,178.00
2018-03-03T07:20:18.750Z,170.20
2018-03-03T07:22:46.318Z,178.80
2018-03-03T07:25:13.900Z,171.68
2018-03-03T07:27:41.520Z,184.43
2018-03-03T07:30:09.076Z,169.80
2018-03-03T07:32:36.643Z,180.52
2018-03-03T07:35:04.239Z,168.70
2018-03-03T07:37:31.817Z,174.25
2018-03-03T07:39:59.424Z,174.62
2018-03-03T07:42:27.023Z,184.75
2018-03-03T07:44:54.608Z,187.23
2018-03-03T07:47:22.982Z,161.55
2018-03-03T07:49:50.563Z,180.87
2018-03-03T07:52:18.130Z,162.70
2018-03-03T07:54:45.970Z,183.25
2018-03-03T07:57:14.322Z,166.15
2018-03-03T07:59:41.919Z,178.12
2018-03-03T08:02:10.283Z,183.90
2018-03-03T08:04:37.878Z,166.70
2018-03-03T08:07:05.488Z,157.90
2018-03-03T08:09:33.062Z,162.00
2018-03-03T08:12:00.666Z,153.50
2018-03-03T08:14:28.263Z,154.77
2018-03-03T08:16:55.872Z,157.05
2018-03-03T08:19:23.515Z,180.70
2018-03-03T08:21:51.861Z,146.27
2018-03-03T08:24:19.441Z,151.00
2018-03-03T08:26:47.034Z,137.67
2018-03-03T08:29:14.621Z,162.77
2018-03-03T08:31:42.210Z,147.37
2018-03-03T08:34:09.777Z,140.57
2018-03-03T08:36:37.359Z,150.35
2018-03-03T08:39:05.714Z,145.97
2018-03-03T08:41:33.278Z,139.47
2018-03-03T08:44:01.859Z,146.13
2018-03-03T08:46:29.428Z,142.77
2018-03-03T08:48:57.000Z,141.30
2018-03-03T08:51:24.678Z,141.90
2018-03-03T08:53:52.247Z,127.90
2018-03-03T08:56:19.811Z,130.13
2018-03-03T08:58:47.601Z,134.70
2018-03-03T09:01:15.197Z,121.90
2018-03-03T09:03:43.607Z,121.13
2018-03-03T09:06:11.189Z,119.10
2018-03-03T09:08:38.756Z,121.57
2018-03-03T09:11:06.379Z,119.10
2018-03-03T09:13:33.960Z,108.37
2018-03-03T09:16:01.537Z,103.23
2018-03-03T09:18:29.920Z,109.47
2018-03-03T09:20:57.497Z,117.80
2018-03-03T09:23:25.123Z,99.47
2018-03-03T09:25:53.129Z,102.43
2018-03-03T09:28:21.476Z,99.47
2018-03-03T09:30:50.116Z,100.53
2018-03-03T09:33:18.453Z,94.60
2018-03-03T09:35:46.084Z,93.33
2018-03-03T09:38:13.648Z,86.40
2018-03-03T09:40:41.223Z,90.07
2018-03-03T09:43:08.863Z,98.33
2018-03-03T09:45:36.511Z,97.37
2018-03-03T09:48:04.185Z,76.47
2018-03-03T09:50:31.879Z,62.80
2018-03-03T09:53:00.472Z,79.30
2018-03-03T09:55:28.090Z,78.90
2018-03-03T09:57:55.665Z,75.60
2018-03-03T10:00:23.234Z,61.10
2018-03-03T10:02:50.820Z,60.50
2018-03-03T10:05:18.420Z,67.23
2018-03-03T10:07:46.088Z,51.50
2018-03-03T10:10:13.672Z,59.87
2018-03-03T10:12:41.265Z,57.50
2018-03-03T10:15:08.956Z,60.50
2018-03-03T10:17:36.616Z,51.67
2018-03-03T10:20:04.229Z,52.37
2018-03-03T10:22:33.771Z,49.00
2018-03-03T10:25:02.117Z,55.17
2018-03-03T10:27:29.692Z,55.80
2018-03-03T10:29:57.293Z,56.23
2018-03-03T10:32:24.858Z,54.20
2018-03-03T10:34:52.421Z,45.63
2018-03-03T10:37:20.020Z,49.80
2018-03-03T10:39:47.620Z,46.37
2018-03-03T10:42:15.196Z,69.50
2018-03-03T10:44:42.874Z,54.40
2018-03-03T10:47:10.571Z,47.03
2018-03-03T10:49:39.032Z,44.73
2018-03-03T10:52:06.732Z,48.27
2018-03-03T10:54:35.115Z,47.80
2018-03-03T10:57:02.687Z,47.00
2018-03-03T10:59:31.053Z,51.60
2018-03-03T11:01:58.618Z,46.57
2018-03-03T11:04:26.974Z,70.30
2018-03-03T11:06:54.574Z,44.77
2018-03-03T11:09:22.152Z,37.23
2018-03-03T11:11:49.748Z,31.23
2018-03-03T11:14:17.330Z,30.50
2018-03-03T11:16:45.471Z,32.23
2018-03-03T11:19:13.842Z,30.53
2018-03-03T11:21:41.449Z,38.23
2018-03-03T11:24:09.808Z,22.63
2018-03-03T11:26:37.412Z,21.90
2018-03-03T11:29:05.007Z,28.33
2018-03-03T11:31:32.563Z,34.03
2018-03-03T11:34:00.154Z,26.40
2018-03-03T11:36:27.726Z,28.43
2018-03-03T11:38:56.084Z,18.87
2018-03-03T11:41:23.662Z,27.10
2018-03-03T11:43:52.048Z,21.80
2018-03-03T11:46:20.437Z,26.17
2018-03-03T11:48:47.973Z,22.73
2018-03-03T11:51:15.552Z,28.93
2018-03-03T11:53:43.892Z,27.80
2018-03-03T11:56:11.483Z,23.07
2018-03-03T11:58:39.821Z,28.60
2018-03-03T12:01:07.397Z,26.50
2018-03-03T12:03:35.006Z,24.10
2018-03-03T12:06:02.596Z,23.00
2018-03-03T12:08:30.197Z,27.47
2018-03-03T12:10:57.761Z,26.80
2018-03-03T12:13:26.107Z,26.23
2018-03-03T12:15:53.696Z,28.27
2018-03-03T12:18:22.036Z,24.40
2018-03-03T12:20:50.374Z,25.33
2018-03-03T12:23:17.946Z,26.90
2018-03-03T12:25:45.544Z,25.43
2018-03-03T12:28:13.132Z,29.03
2018-03-03T12:30:41.494Z,28.00
2018-03-03T12:33:09.093Z,24.50
2018-03-03T12:35:36.713Z,29.00
2018-03-03T12:38:04.364Z,26.10
2018-03-03T12:40:31.966Z,27.97
2018-03-03T12:43:00.326Z,19.53
2018-03-03T12:45:27.920Z,23.60
2018-03-03T12:47:55.507Z,21.83
2018-03-03T12:50:23.111Z,28.83
2018-03-03T12:52:51.471Z,20.00
2018-03-03T12:55:19.075Z,18.70
2018-03-03T12:57:46.665Z,21.27
2018-03-03T13:00:14.246Z,17.47
2018-03-03T13:02:41.858Z,22.10
2018-03-03T13:05:09.451Z,19.03
2018-03-03T13:07:37.019Z,17.37
2018-03-03T13:10:04.599Z,19.70
2018-03-03T13:12:32.207Z,19.33
2018-03-03T13:14:59.811Z,24.27
2018-03-03T13:17:27.396Z,16.30
2018-03-03T13:19:55.731Z,13.73
2018-03-03T13:22:23.316Z,18.03
2018-03-03T13:24:50.907Z,15.37
2018-03-03T13:27:18.531Z,16.00
2018-03-03T13:29:46.099Z,17.67
2018-03-03T13:32:13.710Z,15.70
2018-03-03T13:34:41.269Z,19.90
2018-03-03T13:37:08.836Z,18.70
2018-03-03T13:39:36.428Z,16.53
2018-03-03T13:42:03.991Z,21.87
2018-03-03T13:44:31.597Z,21.40
2018-03-03T13:46:59.184Z,17.53
2018-03-03T13:49:26.788Z,16.80
2018-03-03T13:51:54.364Z,15.23
2018-03-03T13:54:22.693Z,23.50
2018-03-03T13:56:50.282Z,14.30
2018-03-03T13:59:17.869Z,20.40
2018-03-03T14:01:46.247Z,13.83
2018-03-03T14:04:14.570Z,22.43
2018-03-03T14:06:42.152Z,13.40
2018-03-03T14:09:09.745Z,12.73
2018-03-03T14:11:38.082Z,16.27
2018-03-03T14:14:05.673Z,15.43
2018-03-03T14:16:34.040Z,14.53
2018-03-03T14:19:01.602Z,19.10
2018-03-03T14:21:29.192Z,14.50
2018-03-03T14:23:56.765Z,16.07
2018-03-03T14:26:24.353Z,20.20
2018-03-03T14:28:51.962Z,12.23
2018-03-03T14:31:20.324Z,18.83
2018-03-03T14:33:48.678Z,19.70
2018-03-03T14:36:17.250Z,30.83
2018-03-03T14:38:44.815Z,32.40
2018-03-03T14:41:12.424Z,18.07
2018-03-03T14:43:40.003Z,14.33
2018-03-03T14:46:07.846Z,17.17
2018-03-03T14:48:36.199Z,14.90
2018-03-03T14:51:03.758Z,16.93
2018-03-03T14:53:32.164Z,17.47
2018-03-03T14:56:03.656Z,24.73
2018-03-03T14:58:31.248Z,13.77
2018-03-03T15:00:58.825Z,17.43
2018-03-03T15:03:27.183Z,16.53
2018-03-03T15:05:54.756Z,18.63
2018-03-03T15:08:23.105Z,18.47
2018-03-03T15:10:51.483Z,12.30
2018-03-03T15:13:19.075Z,18.00
2018-03-03T15:15:47.427Z,15.93
2018-03-03T15:18:15.449Z,20.43
2018-03-03T15:20:43.035Z,15.53
2018-03-03T15:23:10.632Z,20.40
2018-03-03T15:25:38.228Z,16.70
2018-03-03T15:28:05.826Z,12.17
2018-03-03T15:30:33.391Z,14.70
2018-03-03T15:33:01.984Z,13.67
2018-03-03T15:35:29.618Z,16.47
2018-03-03T15:37:58.228Z,16.07
2018-03-03T15:40:25.810Z,13.80
2018-03-03T15:42:54.182Z,19.43
2018-03-03T15:45:21.779Z,20.33
2018-03-03T15:47:49.391Z,18.70
2018-03-03T15:50:16.964Z,20.40
2018-03-03T15:52:44.551Z,18.63
2018-03-03T15:55:12.152Z,18.83
2018-03-03T15:57:40.518Z,24.70
2018-03-03T16:00:08.084Z,17.23
2018-03-03T16:02:35.679Z,19.83
2018-03-03T16:05:03.271Z,22.33
2018-03-03T16:07:30.851Z,22.30
2018-03-03T16:09:59.467Z,16.57
2018-03-03T16:12:27.064Z,17.70
2018-03-03T16:14:55.399Z,17.63
2018-03-03T16:17:22.992Z,28.63
2018-03-03T16:19:50.600Z,19.33
2018-03-03T16:22:18.173Z,18.63
2018-03-03T16:24:45.817Z,33.10
2018-03-03T16:27:13.405Z,21.83
2018-03-03T16:29:41.353Z,27.00
2018-03-03T16:32:09.032Z,21.23
2018-03-03T16:34:36.582Z,22.67
2018-03-03T16:37:05.152Z,20.60
2018-03-03T16:39:32.768Z,16.73
2018-03-03T16:42:02.140Z,21.83
2018-03-03T16:44:29.728Z,21.87
2018-03-03T16:46:57.302Z,22.00
2018-03-03T16:49:25.677Z,19.07
2018-03-03T16:51:54.015Z,24.60
2018-03-03T16:54:21.581Z,23.83
2018-03-03T16:56:49.165Z,16.77
2018-03-03T16:59:17.500Z,16.47
2018-03-03T17:01:45.103Z,19.97
2018-03-03T17:04:13.436Z,16.27
2018-03-03T17:06:44.593Z,11.50
2018-03-03T17:09:12.174Z,9.67
2018-03-03T17:11:39.731Z,13.47
2018-03-03T17:14:07.304Z,12.93
2018-03-03T17:16:35.665Z,10.13
2018-03-03T17:19:03.276Z,11.23
2018-03-03T17:21:30.838Z,18.70
2018-03-03T17:23:58.416Z,12.83
2018-03-03T17:26:26.015Z,15.27
2018-03-03T17:28:53.601Z,11.77
2018-03-03T17:31:22.816Z,16.40
2018-03-03T17:33:50.394Z,18.20
2018-03-03T17:36:19.912Z,33.77
2018-03-03T17:38:47.488Z,28.83
2018-03-03T17:41:15.094Z,17.97
2018-03-03T17:43:46.361Z,18.40
2018-03-03T17:46:13.946Z,16.77
2018-03-03T17:48:44.770Z,17.80
2018-03-03T17:51:12.342Z,20.33
2018-03-03T17:53:39.929Z,15.13
2018-03-03T17:56:08.261Z,19.67
2018-03-03T17:58:35.839Z,16.97
2018-03-03T18:01:03.404Z,11.90
2018-03-03T18:03:31.020Z,13.10
2018-03-03T18:05:58.581Z,16.67
2018-03-03T18:08:26.160Z,11.37
2018-03-03T18:10:55.478Z,24.47
2018-03-03T18:13:32.304Z,26.27
2018-03-03T18:16:00.647Z,13.47
2018-03-03T18:18:30.505Z,32.20
2018-03-03T18:20:58.092Z,15.23
2018-03-03T18:23:25.642Z,14.03
2018-03-03T18:25:53.227Z,14.80
2018-03-03T18:28:20.825Z,23.00
2018-03-03T18:30:49.170Z,20.47
2018-03-03T18:33:16.818Z,20.67
2018-03-03T18:35:45.932Z,14.50
2018-03-03T18:38:13.571Z,15.87
2018-03-03T18:40:41.125Z,13.10
2018-03-03T18:43:08.703Z,17.40
2018-03-03T18:45:36.249Z,17.83
2018-03-03T18:48:03.827Z,18.20
2018-03-03T18:50:31.435Z,25.47
2018-03-03T18:52:59.046Z,23.17
2018-03-03T18:55:26.620Z,19.83
2018-03-03T18:57:54.182Z,22.33
2018-03-03T19:00:21.788Z,28.50
2018-03-03T19:02:49.379Z,26.43
2018-03-03T19:05:16.967Z,21.63
2018-03-03T19:07:44.570Z,24.43
2018-03-03T19:10:12.139Z,20.70
2018-03-03T19:12:39.728Z,28.23
2018-03-03T19:15:08.310Z,28.63
2018-03-03T19:17:35.910Z,31.63
2018-03-03T19:20:04.260Z,43.27
2018-03-03T19:22:31.842Z,45.63
2018-03-03T19:25:00.221Z,35.83
2018-03-03T19:27:28.559Z,36.70
2018-03-03T19:29:56.143Z,36.30
2018-03-03T19:32:23.748Z,37.00
2018-03-03T19:34:51.363Z,38.40
2018-03-03T19:37:18.931Z,34.20
2018-03-03T19:39:46.505Z,40.27
2018-03-03T19:42:14.120Z,40.73
2018-03-03T19:44:41.711Z,40.10
2018-03-03T19:47:10.075Z,39.90
2018-03-03T19:49:37.660Z,37.80
2018-03-03T19:52:05.266Z,38.93
2018-03-03T19:54:33.642Z,39.60
2018-03-03T19:57:01.254Z,55.33
2018-03-03T19:59:28.864Z,47.07
2018-03-03T20:01:56.436Z,45.80
2018-03-03T20:04:24.035Z,45.77
2018-03-03T20:06:52.371Z,54.77
2018-03-03T20:09:19.980Z,61.80
2018-03-03T20:11:47.582Z,51.73
2018-03-03T20:14:15.154Z,47.80
2018-03-03T20:16:43.543Z,41.50
2018-03-03T20:19:11.129Z,43.70
2018-03-03T20:21:39.462Z,50.47
2018-03-03T20:24:07.071Z,51.10
2018-03-03T20:26:35.443Z,51.40
2018-03-03T20:29:03.031Z,53.77
2018-03-03T20:31:30.609Z,59.63
2018-03-03T20:33:59.121Z,65.60
2018-03-03T20:36:27.503Z,67.87
2018-03-03T20:38:55.094Z,53.90
2018-03-03T20:41:22.707Z,54.83
2018-03-03T20:43:51.088Z,58.40
2018-03-03T20:46:18.666Z,66.80
2018-03-03T20:48:46.287Z,51.70
2018-03-03T20:51:14.125Z,57.97
2018-03-03T20:53:42.451Z,67.67
2018-03-03T20:56:10.034Z,68.13
2018-03-03T20:58:37.603Z,60.47
2018-03-03T21:01:05.229Z,66.83
2018-03-03T21:03:32.791Z,67.40
2018-03-03T21:06:00.357Z,54.90
2018-03-03T21:08:28.941Z,55.80
2018-03-03T21:10:57.267Z,59.47
2018-03-03T21:13:25.635Z,57.83
2018-03-03T21:15:53.967Z,70.03
2018-03-03T21:18:21.579Z,56.50
2018-03-03T21:20:50.850Z,57.67
2018-03-03T21:23:18.463Z,64.47
2018-03-03T21:25:46.020Z,76.57
2018-03-03T21:28:13.630Z,69.47
2018-03-03T21:30:41.207Z,70.80
2018-03-03T21:33:09.548Z,79.00
2018-03-03T21:35:37.156Z,83.70
2018-03-03T21:38:05.487Z,87.37
2018-03-03T21:40:33.067Z,86.03
2018-03-03T21:43:00.664Z,86.30
2018-03-03T21:45:28.254Z,80.23
2018-03-03T21:47:55.831Z,92.90
2018-03-03T21:50:23.382Z,83.23
2018-03-03T21:52:50.967Z,85.03
2018-03-03T21:55:18.540Z,92.63
2018-03-03T21:57:46.157Z,105.73
2018-03-03T22:00:13.709Z,99.43
2018-03-03T22:02:41.275Z,106.50
2018-03-03T22:05:08.868Z,100.00
2018-03-03T22:07:36.440Z,98.03
2018-03-03T22:10:04.065Z,91.10
2018-03-03T22:12:31.640Z,103.90
2018-03-03T22:14:59.269Z,95.93
2018-03-03T22:17:26.871Z,96.87
2018-03-03T22:19:54.453Z,97.30
2018-03-03T22:22:22.806Z,97.50
2018-03-03T22:24:50.381Z,93.17
2018-03-03T22:27:18.019Z,95.40
2018-03-03T22:29:45.578Z,106.13
2018-03-03T22:32:13.200Z,96.73
2018-03-03T22:34:40.781Z,101.07
2018-03-03T22:37:08.362Z,109.53
2018-03-03T22:39:35.951Z,104.73
2018-03-03T22:42:04.274Z,108.43
2018-03-03T22:44:31.905Z,102.23
2018-03-03T22:46:59.463Z,104.70
2018-03-03T22:49:27.844Z,93.83
2018-03-03T22:51:56.171Z,105.67
2018-03-03T22:54:23.780Z,115.03
2018-03-03T22:56:52.101Z,117.40
2018-03-03T22:59:19.688Z,119.00
2018-03-03T23:01:47.276Z,115.60
2018-03-03T23:04:15.651Z,99.10
2018-03-03T23:06:43.300Z,114.00
2018-03-03T23:09:11.662Z,109.53
2018-03-03T23:11:39.255Z,107.00
2018-03-03T23:14:07.656Z,107.67
2018-03-03T23:16:35.247Z,98.40
2018-03-03T23:19:02.841Z,103.40
2018-03-03T23:21:31.193Z,107.50
2018-03-03T23:23:58.778Z,101.10
2018-03-03T23:26:27.154Z,111.03
2018-03-03T23:28:54.748Z,118.53
2018-03-03T23:31:22.407Z,104.13
2018-03-03T23:33:49.993Z,98.67
2018-03-03T23:36:17.576Z,112.43
2018-03-03T23:38:45.180Z,101.50
2018-03-03T23:41:12.763Z,113.83
2018-03-03T23:43:40.355Z,120.10
2018-03-03T23:46:07.926Z,119.80
2018-03-03T23:48:35.533Z,107.53
2018-03-03T23:51:03.108Z,100.07
2018-03-03T23:53:30.698Z,93.70
2018-03-03T23:55:58.278Z,92.93
2018-03-03T23:58:26.612Z,90.00
